Camp Clark, Missouri
Current Conditions -  °F | °C
As of 1:35 PM on Thursday 18 Dec 2014 (Local Time) from KPTS Reporting Station
Overcast Overcast  
Wind Chill: 38°   Ceiling: 800
Heat Index: 38°   Visibility: 10mi
Dew Point: 38°   Wind: 0mph
Humidity: 100%   Direction: NA
Pressure: 30.16"   Gusts: NA
Location:  37.8504°N, 94.3445°W
Report Text: KPTS 181935Z AUTO 00000KT 10SM OVC008 04/04 A3016 RMK AO2 T00350036
Loading
Personal Weather Stations






























Interactive Weather Map New forecast layout! Learn more

10-Day Weather Forecast

Advertisements
Track Severe Weather on mobile